Ana Sayfa
METAR-TAF:

METAR-TAF

Havaalanları :

Bratislava, Slovakya

Enlem: 48-12N, Boylam: 017-12E, yükseklik: 133 m

Güncel hava durumu gözlemi

Rapor saat 05:00 UTC de 12 dakika önce yapıldı.
Rüzgar batı/güneybatıdan 2 kt
Sıcaklık -3°C
Nem 80%
Basınç 1024 hPa
Görüş mesafesi 10 km veya daha fazla
Sığ sis

METAR: LZIB 010500Z 25002KT 9999 MIFG NSC M03/M06 Q1024 NOSIG

Saat: 07:12 (05:12 UTC)

Tahmin

Rapor saat 23:00 UTC de 6 saat ve 12 dakika önce yapıldı.
Ayın 01'si saat 00 UTC'den ayın 02'si saat 00 UTC'ye kadar geçerli Tahmin
Rüzgar batıdan 4 kt
Görüş mesafesi 10 km veya daha fazla
1500 m altında bulut yok ve kümülonimbus yok
Geçici
ayın 01'si saat 09 UTC'den ayın 01'si saat 15 UTC'ye kadar
Görüş mesafesi 10 km veya daha fazla
4500 ft yükseklikte parçalı bulutlu
Dönüşüyor
ayın 01'si saat 10 UTC'den ayın 01'si saat 12 UTC'ye kadar
Rüzgar güney/güneybatıdan 5 kt

TAF: LZIB 312300Z 0100/0200 28004KT CAVOK TEMPO 0109/0115 9999 SCT045 BECMG 0110/0112 20005KT

4.000'den fazla havaalanı için hava durumu gözlemleri ve tahminleri (METAR ve TAF raporları).

Kullanılabilir istasyonlar harita üzerinde sarı ve kırmızı noktalarla gösterilir.

İstasyonun adını görmek için fareyi noktanın üzerinde gezdirin.

Sonrasında hava gözlem ve tahminlerini görmek için tıklayın.

Haritayı değiştirmek için: yaklaştırmak için siyah artı işaretli yeşil düğmeye ve uzaklaştırmak için de eksi işaretli düğmeye hızla tıklayın; bitişik haritalar için yeşil okları kullanın.


METAR-TAF: